Time;durP1;ratioP1;P1;durP2;ratioP2;P2;SDS_P1;SDS_P2;PMS_P1;PMS_P2;Temp;Humidity;BMP_temperature;BMP_pressure;BME280_temperature;BME280_humidity;BME280_pressure;Samples;Min_cycle;Max_cycle;Signal;HPM_P1;HPM_P2
2021/06/18 00:00:07;;;;;;;4.83;2.60;;;;;;;30.08;43.15;69274.47;5043320;28;20230;-76
2021/06/18 00:02:34;;;;;;;3.27;2.37;;;;;;;30.05;43.27;69270.09;5029930;28;20199;-75
2021/06/18 00:05:02;;;;;;;3.60;2.67;;;;;;;30.03;43.34;69268.25;5044043;28;20320;-75
2021/06/18 00:07:29;;;;;;;3.60;2.90;;;;;;;30.01;43.98;69265.81;5051031;28;20202;-76
2021/06/18 00:09:57;;;;;;;4.40;2.70;;;;;;;30.00;43.46;69264.94;5055307;28;20222;-76
2021/06/18 00:12:25;;;;;;;4.57;2.70;;;;;;;30.00;43.50;69264.03;5055209;28;20651;-76
2021/06/18 00:14:52;;;;;;;3.67;2.70;;;;;;;29.97;44.01;69261.28;5047383;28;20195;-76
2021/06/18 00:17:19;;;;;;;5.40;2.77;;;;;;;29.95;44.19;69258.78;5034662;28;20205;-76
2021/06/18 00:19:47;;;;;;;3.93;2.60;;;;;;;29.94;43.82;69257.59;5050706;28;20218;-76
2021/06/18 00:22:14;;;;;;;5.70;2.80;;;;;;;29.91;45.00;69253.84;5032799;28;20209;-75
2021/06/18 00:24:41;;;;;;;3.60;2.77;;;;;;;29.88;45.16;69250.56;5051873;28;20226;-75
2021/06/18 00:27:10;;;;;;;6.33;2.83;;;;;;;29.85;45.03;69247.09;5044964;28;20210;-75
2021/06/18 00:29:37;;;;;;;4.30;2.97;;;;;;;29.82;44.21;69244.56;5038818;28;20231;-74
2021/06/18 00:32:05;;;;;;;5.00;2.60;;;;;;;29.80;44.14;69241.97;5036024;28;20655;-75
2021/06/18 00:34:33;;;;;;;4.20;2.63;;;;;;;29.77;44.31;69239.28;5047637;28;20213;-75
2021/06/18 00:37:00;;;;;;;3.53;2.60;;;;;;;29.75;44.96;69237.19;5040684;28;20205;-74
2021/06/18 00:39:27;;;;;;;3.77;2.70;;;;;;;29.71;45.74;69232.31;5042391;28;20218;-75
2021/06/18 00:41:55;;;;;;;4.93;2.60;;;;;;;29.68;45.44;69229.19;5045656;28;20297;-78
2021/06/18 00:44:24;;;;;;;4.43;2.57;;;;;;;29.65;44.55;69226.38;5038686;28;20571;-76
2021/06/18 00:46:51;;;;;;;4.63;2.60;;;;;;;29.62;45.10;69222.63;5042445;28;20549;-77
2021/06/18 00:49:19;;;;;;;3.80;2.47;;;;;;;29.59;45.71;69219.78;5049382;28;20241;-76
2021/06/18 00:51:46;;;;;;;2.90;2.50;;;;;;;29.55;45.77;69215.47;5014836;28;20213;-76
2021/06/18 00:54:14;;;;;;;4.63;2.80;;;;;;;29.52;45.96;69211.53;5028494;28;20562;-76
2021/06/18 00:56:42;;;;;;;6.27;2.97;;;;;;;29.48;46.50;69207.09;5053296;28;20197;-77
2021/06/18 00:59:09;;;;;;;4.47;3.33;;;;;;;29.44;46.39;69202.66;5047432;28;20308;-76
2021/06/18 01:01:37;;;;;;;3.53;2.80;;;;;;;29.40;47.06;69197.50;5045504;28;20210;-76
2021/06/18 01:04:05;;;;;;;4.40;2.73;;;;;;;29.36;46.52;69193.94;5044711;28;20234;-76
2021/06/18 01:06:36;;;;;;;5.40;3.07;;;;;;;29.33;47.25;69190.06;5036061;28;20213;-76
2021/06/18 01:09:05;;;;;;;4.40;2.77;;;;;;;29.31;46.27;69187.63;5043439;28;20226;-74
2021/06/18 01:11:37;;;;;;;4.00;2.80;;;;;;;29.28;47.28;69184.03;5051038;28;20260;-75
2021/06/18 01:14:08;;;;;;;5.23;2.90;;;;;;;29.25;46.93;69181.03;5050713;28;20202;-75
2021/06/18 01:16:41;;;;;;;4.40;2.67;;;;;;;29.23;46.72;69179.25;5048147;28;20206;-75
2021/06/18 01:19:19;;;;;;;10.23;2.70;;;;;;;29.20;46.88;69176.72;5037976;28;20612;-75
2021/06/18 01:21:48;;;;;;;4.30;2.80;;;;;;;29.17;48.02;69172.97;5041603;28;20202;-75
2021/06/18 01:24:28;;;;;;;3.33;2.63;;;;;;;29.15;47.55;69170.06;5043496;28;20240;-75
2021/06/18 01:27:15;;;;;;;5.47;2.60;;;;;;;29.12;47.44;69166.63;5047890;28;20198;-76
2021/06/18 01:29:46;;;;;;;7.63;2.80;;;;;;;29.09;47.32;69163.81;5044375;28;20233;-76
2021/06/18 01:32:20;;;;;;;4.73;2.63;;;;;;;29.05;47.83;69160.13;5032534;28;20201;-76
2021/06/18 01:34:48;;;;;;;7.03;2.77;;;;;;;29.03;47.28;69158.16;5034434;28;20217;-76
2021/06/18 01:37:19;;;;;;;3.97;2.60;;;;;;;29.01;47.07;69155.56;5039727;28;20214;-76
2021/06/18 01:39:48;;;;;;;4.10;2.77;;;;;;;28.97;48.67;69150.84;5045071;28;20236;-75
2021/06/18 01:42:17;;;;;;;3.70;2.70;;;;;;;28.93;48.84;69145.94;5028458;28;20225;-76
2021/06/18 01:44:46;;;;;;;4.30;2.63;;;;;;;28.90;48.61;69142.81;5039768;28;20230;-76
2021/06/18 01:47:16;;;;;;;5.10;2.77;;;;;;;28.86;49.26;69138.34;5039095;28;20208;-76
2021/06/18 01:49:44;;;;;;;4.67;2.60;;;;;;;28.82;49.04;69134.03;5043899;28;20307;-76
2021/06/18 01:52:13;;;;;;;6.13;2.53;;;;;;;28.80;48.58;69131.78;5043772;28;20221;-76
2021/06/18 01:54:41;;;;;;;4.20;2.60;;;;;;;28.77;49.39;69128.38;5041666;28;20205;-76
2021/06/18 01:57:09;;;;;;;3.67;2.63;;;;;;;28.75;48.65;69126.06;5031999;28;20895;-76
2021/06/18 01:59:38;;;;;;;4.50;2.77;;;;;;;28.72;48.52;69123.41;5039713;28;20254;-76
2021/06/18 02:02:08;;;;;;;3.80;2.70;;;;;;;28.68;49.66;69119.56;5051555;28;20570;-76
2021/06/18 02:04:37;;;;;;;3.50;2.47;;;;;;;28.64;50.32;69114.44;5043304;28;20309;-76
2021/06/18 02:07:06;;;;;;;3.33;2.60;;;;;;;28.61;49.68;69112.03;5048806;28;20293;-76
2021/06/18 02:09:35;;;;;;;5.47;2.43;;;;;;;28.58;49.52;69108.28;5041196;28;20229;-76
2021/06/18 02:12:03;;;;;;;4.50;2.67;;;;;;;28.55;49.92;69104.41;5034639;28;20206;-76
2021/06/18 02:14:32;;;;;;;3.77;2.73;;;;;;;28.52;49.64;69101.88;5042928;28;20250;-76
2021/06/18 02:17:01;;;;;;;5.03;2.57;;;;;;;28.48;50.86;69097.91;5044945;28;20202;-76
2021/06/18 02:19:30;;;;;;;4.70;2.90;;;;;;;28.46;50.64;69094.75;5045288;28;20229;-77
2021/06/18 02:21:58;;;;;;;3.80;2.60;;;;;;;28.44;50.36;69092.91;5044623;28;20671;-79
2021/06/18 02:24:27;;;;;;;2.80;2.47;;;;;;;28.42;49.61;69091.53;5042886;28;20643;-77
2021/06/18 02:26:54;;;;;;;4.07;2.70;;;;;;;28.41;49.61;69089.63;5033549;28;20589;-78
2021/06/18 02:29:22;;;;;;;3.40;2.70;;;;;;;28.38;50.79;69086.63;5045424;28;20222;-77
2021/06/18 02:31:50;;;;;;;4.47;2.60;;;;;;;28.36;49.92;69084.38;5045814;28;20210;-76
2021/06/18 02:34:17;;;;;;;5.47;2.90;;;;;;;28.34;49.71;69082.41;5044727;28;20209;-77
2021/06/18 02:36:46;;;;;;;3.83;2.87;;;;;;;28.31;49.72;69079.38;5047963;28;20202;-77
2021/06/18 02:39:14;;;;;;;4.00;2.87;;;;;;;28.29;49.33;69076.66;5038358;28;20226;-77
2021/06/18 02:41:42;;;;;;;4.13;2.80;;;;;;;28.27;49.89;69074.53;5032258;28;20583;-77
2021/06/18 02:44:09;;;;;;;6.53;2.67;;;;;;;28.24;49.95;69072.16;5048141;28;20214;-76
2021/06/18 02:46:41;;;;;;;6.73;2.80;;;;;;;28.23;49.69;69070.56;5046988;28;20236;-76
2021/06/18 02:49:10;;;;;;;4.13;2.60;;;;;;;28.21;50.18;69068.25;5040543;28;20234;-79
2021/06/18 02:51:41;;;;;;;5.47;3.00;;;;;;;28.17;51.86;69063.81;5046388;28;20217;-78
2021/06/18 02:54:20;;;;;;;5.83;2.93;;;;;;;28.13;52.51;69059.41;5033476;28;20206;-78
2021/06/18 02:56:50;;;;;;;4.27;2.90;;;;;;;28.11;51.32;69057.38;5031940;28;20209;-77
2021/06/18 02:59:23;;;;;;;4.30;2.90;;;;;;;28.07;52.54;69052.78;5041015;28;20313;-77
2021/06/18 03:01:51;;;;;;;3.40;2.80;;;;;;;28.02;54.23;69047.03;5055042;28;20577;-77
2021/06/18 03:04:22;;;;;;;4.27;3.30;;;;;;;27.93;57.33;69037.53;5045671;28;20301;-77
2021/06/18 03:06:51;;;;;;;5.10;2.87;;;;;;;27.90;54.59;69033.63;5047564;28;20198;-77
2021/06/18 03:09:24;;;;;;;9.63;4.63;;;;;;;27.91;52.12;69034.38;5029650;28;20706;-77
2021/06/18 03:11:52;;;;;;;7.57;3.67;;;;;;;27.92;50.71;69036.38;5032363;28;20264;-78
2021/06/18 03:14:20;;;;;;;4.67;3.47;;;;;;;27.96;50.10;69040.28;5043400;28;20206;-78
2021/06/18 03:16:50;;;;;;;5.63;3.10;;;;;;;27.98;50.46;69042.75;5046787;28;20206;-76
2021/06/18 03:19:21;;;;;;;4.47;3.67;;;;;;;28.01;50.03;69045.88;5037728;28;20241;-76
2021/06/18 03:21:48;;;;;;;4.47;3.33;;;;;;;28.03;50.86;69048.34;5046420;28;20198;-76
2021/06/18 03:24:16;;;;;;;4.67;3.10;;;;;;;28.05;50.33;69051.69;5032796;28;20214;-76
2021/06/18 03:26:45;;;;;;;3.40;3.00;;;;;;;28.07;50.98;69053.28;5031740;28;20322;-76
2021/06/18 03:29:13;;;;;;;4.80;3.30;;;;;;;28.09;49.99;69056.50;5042916;28;20586;-77
2021/06/18 03:31:42;;;;;;;4.13;3.40;;;;;;;28.09;50.99;69056.84;5039499;28;20206;-77
2021/06/18 03:34:09;;;;;;;6.87;3.70;;;;;;;28.11;51.11;69059.00;5047386;28;20202;-78
2021/06/18 03:36:37;;;;;;;6.77;3.77;;;;;;;28.13;50.75;69062.06;5043622;28;20591;-78
2021/06/18 03:39:05;;;;;;;6.83;3.40;;;;;;;28.15;51.41;69063.50;5034447;28;20799;-75
2021/06/18 03:41:32;;;;;;;6.03;3.30;;;;;;;28.16;51.51;69065.34;5037798;28;20202;-78
2021/06/18 03:44:01;;;;;;;7.00;3.50;;;;;;;28.16;52.32;69065.69;5044247;28;20206;-77
2021/06/18 03:46:29;;;;;;;9.33;3.50;;;;;;;28.16;52.59;69065.84;5042117;28;20232;-78
2021/06/18 03:48:58;;;;;;;3.47;3.10;;;;;;;28.17;52.27;69067.00;5039639;28;20238;-78
2021/06/18 03:51:25;;;;;;;4.43;3.33;;;;;;;28.18;52.07;69068.03;5048025;28;20206;-78
2021/06/18 03:53:55;;;;;;;6.17;3.07;;;;;;;28.19;51.64;69069.03;5034616;28;20218;-78
2021/06/18 03:56:23;;;;;;;5.03;3.70;;;;;;;28.19;52.41;69069.31;5038325;28;20202;-79
2021/06/18 03:58:50;;;;;;;4.70;3.60;;;;;;;28.20;51.94;69070.22;5046708;28;20240;-76
2021/06/18 04:01:19;;;;;;;6.73;3.60;;;;;;;28.21;52.37;69071.53;5047992;28;20220;-76
2021/06/18 04:03:50;;;;;;;5.50;3.60;;;;;;;28.23;51.84;69074.13;5054300;28;20210;-76
2021/06/18 04:06:18;;;;;;;4.97;3.47;;;;;;;28.26;51.58;69077.44;5044892;28;20224;-76
2021/06/18 04:08:46;;;;;;;7.07;3.50;;;;;;;28.28;52.25;69079.59;5035487;28;20237;-76
2021/06/18 04:11:15;;;;;;;5.60;3.70;;;;;;;28.30;52.49;69081.75;5037919;28;20659;-75
2021/06/18 04:13:43;;;;;;;6.27;3.43;;;;;;;28.30;52.60;69082.81;5049301;28;20224;-76
2021/06/18 04:16:11;;;;;;;5.93;3.60;;;;;;;28.33;52.43;69085.41;5052191;28;20191;-75
2021/06/18 04:18:43;;;;;;;3.57;3.20;;;;;;;28.35;52.40;69088.41;5041853;28;20226;-75
2021/06/18 04:21:13;;;;;;;6.63;3.80;;;;;;;28.38;51.56;69092.19;5051633;28;20209;-76
2021/06/18 04:23:40;;;;;;;5.77;3.73;;;;;;;28.42;51.79;69096.13;5032360;28;20203;-76
2021/06/18 04:26:08;;;;;;;7.07;3.87;;;;;;;28.45;51.27;69100.59;5041792;28;20717;-72
2021/06/18 04:28:36;;;;;;;5.33;4.00;;;;;;;28.50;50.73;69105.25;5047667;28;20234;-74
2021/06/18 04:31:06;;;;;;;6.17;3.83;;;;;;;28.55;50.83;69111.00;5044470;28;20671;-75
2021/06/18 04:33:33;;;;;;;6.57;3.97;;;;;;;28.60;50.57;69116.31;5042101;28;20209;-78
2021/06/18 04:36:02;;;;;;;5.23;3.73;;;;;;;28.65;49.70;69122.06;5048500;28;20201;-77
2021/06/18 04:38:30;;;;;;;4.90;3.60;;;;;;;28.70;48.61;69128.84;5035615;28;20214;-77
2021/06/18 04:40:57;;;;;;;6.53;4.27;;;;;;;28.77;48.10;69136.03;5042252;28;20198;-77
2021/06/18 04:43:24;;;;;;;5.90;4.03;;;;;;;28.84;47.53;69144.22;5047489;28;20202;-77
2021/06/18 04:45:52;;;;;;;5.93;4.03;;;;;;;28.91;47.21;69152.22;5044798;28;20227;-77
2021/06/18 04:48:20;;;;;;;8.07;4.53;;;;;;;29.00;46.52;69162.19;5053859;28;20297;-75
2021/06/18 04:50:47;;;;;;;4.87;4.10;;;;;;;29.07;46.85;69170.81;5051500;28;20212;-75
2021/06/18 04:53:16;;;;;;;8.80;4.03;;;;;;;29.15;46.65;69180.31;5029232;28;20566;-75
2021/06/18 04:55:43;;;;;;;11.20;4.10;;;;;;;29.25;45.22;69191.53;5037624;28;20203;-76
2021/06/18 04:58:11;;;;;;;8.97;4.03;;;;;;;29.33;45.83;69201.22;5044874;28;20211;-76
2021/06/18 05:00:39;;;;;;;7.90;3.90;;;;;;;29.44;44.98;69212.66;5044273;28;20298;-76
2021/06/18 05:03:06;;;;;;;6.53;4.00;;;;;;;29.54;44.37;69224.88;5051149;28;20298;-77
2021/06/18 05:05:33;;;;;;;5.73;4.00;;;;;;;29.66;44.17;69237.84;5047731;28;20228;-76
2021/06/18 05:08:00;;;;;;;9.00;3.70;;;;;;;29.76;43.74;69249.78;5025321;28;20313;-76
2021/06/18 05:10:29;;;;;;;4.10;3.70;;;;;;;29.86;44.49;69260.81;5038801;28;20233;-76
2021/06/18 05:12:57;;;;;;;7.37;4.00;;;;;;;29.98;42.83;69274.41;5047420;28;20224;-76
2021/06/18 05:15:24;;;;;;;6.23;4.20;;;;;;;30.02;46.08;69279.50;5050287;28;20219;-76
2021/06/18 05:17:51;;;;;;;5.70;3.90;;;;;;;30.14;43.31;69292.31;5055549;28;20220;-76
2021/06/18 05:20:19;;;;;;;4.87;3.77;;;;;;;30.26;42.38;69306.38;5053927;28;20229;-76
2021/06/18 05:22:46;;;;;;;6.20;4.30;;;;;;;30.37;43.64;69319.03;5025715;28;20228;-76
2021/06/18 05:25:14;;;;;;;13.73;4.43;;;;;;;30.47;42.43;69330.09;5035048;28;20207;-77
2021/06/18 05:27:43;;;;;;;7.72;3.60;;;;;;;30.55;42.35;69340.06;5036409;28;20213;-76
2021/06/18 05:30:13;;;;;;;4.68;3.60;;;;;;;30.66;41.76;69352.41;5052583;28;20225;-77
2021/06/18 05:32:44;;;;;;;4.18;3.55;;;;;;;30.68;43.13;69354.72;5036588;28;20729;-77
2021/06/18 05:35:12;;;;;;;5.05;3.50;;;;;;;30.81;39.61;69369.06;5033567;28;20206;-78
2021/06/18 05:37:40;;;;;;;5.18;3.92;;;;;;;30.84;41.74;69372.13;5046059;28;20210;-76
2021/06/18 05:40:08;;;;;;;6.93;3.58;;;;;;;30.97;37.95;69387.19;5050184;28;20591;-75
2021/06/18 05:42:36;;;;;;;6.28;3.50;;;;;;;31.10;37.60;69401.53;5040622;28;20214;-76
2021/06/18 05:45:06;;;;;;;6.10;3.60;;;;;;;31.13;40.78;69405.16;5034970;28;20351;-75
2021/06/18 05:47:33;;;;;;;10.63;3.28;;;;;;;31.23;38.38;69416.84;5039930;28;20237;-78
2021/06/18 05:50:01;;;;;;;3.95;3.25;;;;;;;31.38;35.91;69433.72;5037546;28;20238;-75
2021/06/18 05:52:28;;;;;;;5.47;3.33;;;;;;;31.54;35.16;69452.69;5047684;28;20233;-76
2021/06/18 05:54:55;;;;;;;4.78;3.70;;;;;;;31.65;37.09;69465.19;5031997;28;20655;-78
2021/06/18 05:57:22;;;;;;;4.32;3.45;;;;;;;31.74;37.03;69474.81;5040769;28;20539;-78
2021/06/18 05:59:50;;;;;;;5.65;3.13;;;;;;;31.86;36.76;69488.34;5038163;28;20588;-76
2021/06/18 06:02:19;;;;;;;3.53;2.75;;;;;;;31.91;37.76;69494.53;5039465;28;20214;-79
2021/06/18 06:04:46;;;;;;;7.07;2.95;;;;;;;31.98;36.94;69501.91;5037840;28;20202;-80
2021/06/18 06:07:14;;;;;;;4.05;2.83;;;;;;;32.05;36.90;69509.47;5036490;28;20243;-80
2021/06/18 06:09:41;;;;;;;5.25;3.38;;;;;;;32.12;37.21;69518.22;5033035;28;20226;-75
2021/06/18 06:12:09;;;;;;;4.93;2.78;;;;;;;32.16;37.14;69521.81;5036156;28;20207;-78
2021/06/18 06:14:36;;;;;;;4.38;2.72;;;;;;;32.24;35.47;69531.34;5047741;28;20695;-78
2021/06/18 06:17:04;;;;;;;5.50;2.97;;;;;;;32.26;37.60;69533.66;5030803;28;20203;-79
2021/06/18 06:19:33;;;;;;;4.97;2.63;;;;;;;32.34;36.04;69542.25;5034408;28;20292;-76
2021/06/18 06:22:00;;;;;;;4.55;2.95;;;;;;;32.34;38.19;69542.09;5047214;28;20507;-78
2021/06/18 06:24:28;;;;;;;5.57;2.95;;;;;;;32.44;35.23;69554.03;5038101;28;20202;-78
2021/06/18 06:26:55;;;;;;;10.50;3.15;;;;;;;32.56;34.01;69568.34;5031934;28;20695;-78
2021/06/18 06:29:22;;;;;;;5.57;3.28;;;;;;;32.63;36.37;69576.06;5044121;28;20732;-77
2021/06/18 06:31:50;;;;;;;2.80;2.50;;;;;;;32.65;36.80;69578.56;5049358;28;20198;-77
2021/06/18 06:34:17;;;;;;;7.75;2.97;;;;;;;32.72;35.39;69586.47;5044390;28;20268;-77
2021/06/18 06:36:45;;;;;;;2.80;2.60;;;;;;;32.81;34.63;69596.59;5039373;28;20214;-76
2021/06/18 06:39:13;;;;;;;4.45;3.03;;;;;;;32.82;37.25;69597.75;5030132;28;20223;-76
2021/06/18 06:41:40;;;;;;;5.75;2.92;;;;;;;32.91;34.39;69608.59;5031246;28;20210;-75
2021/06/18 06:44:07;;;;;;;6.05;3.40;;;;;;;33.00;35.48;69617.75;5043340;28;20204;-76
2021/06/18 06:46:35;;;;;;;4.38;2.88;;;;;;;33.10;33.96;69629.16;5041339;28;20226;-75
2021/06/18 06:49:02;;;;;;;5.07;2.75;;;;;;;33.18;34.51;69638.38;5043685;28;20237;-77
2021/06/18 06:51:30;;;;;;;12.52;3.20;;;;;;;33.25;34.05;69646.25;5043523;28;20318;-75
2021/06/18 06:53:58;;;;;;;2.90;2.60;;;;;;;33.25;37.05;69646.41;5036464;28;20203;-76
2021/06/18 06:56:26;;;;;;;3.25;2.95;;;;;;;33.19;38.90;69640.56;5031036;28;20227;-75
2021/06/18 06:58:55;;;;;;;7.25;3.20;;;;;;;33.20;37.31;69641.16;5041865;28;20725;-75
2021/06/18 07:01:22;;;;;;;7.97;3.15;;;;;;;33.28;35.74;69650.09;5041149;28;20212;-75
2021/06/18 07:03:50;;;;;;;6.15;3.00;;;;;;;33.29;36.12;69651.41;5030217;28;20214;-75
2021/06/18 07:06:17;;;;;;;4.20;2.70;;;;;;;33.29;36.07;69651.63;5027973;28;20669;-75
2021/06/18 07:08:44;;;;;;;6.93;2.80;;;;;;;33.39;33.64;69662.88;5030643;28;20231;-76
2021/06/18 07:11:13;;;;;;;3.28;2.72;;;;;;;33.45;34.89;69669.41;5048856;28;20212;-75
2021/06/18 07:13:40;;;;;;;5.80;2.72;;;;;;;33.54;33.27;69679.50;5039792;28;20214;-75
2021/06/18 07:16:08;;;;;;;5.63;3.05;;;;;;;33.56;35.79;69681.72;5047175;28;20677;-76
2021/06/18 07:18:36;;;;;;;8.00;3.55;;;;;;;33.58;36.33;69684.13;5040447;28;20228;-76
2021/06/18 07:21:03;;;;;;;7.20;3.38;;;;;;;33.67;34.19;69694.13;5028453;28;20676;-75
2021/06/18 07:23:30;;;;;;;5.55;3.40;;;;;;;33.64;37.00;69691.00;5030628;28;20214;-75
2021/06/18 07:25:58;;;;;;;8.05;3.20;;;;;;;33.64;36.07;69691.56;5040617;28;20489;-77
2021/06/18 07:28:26;;;;;;;10.05;3.13;;;;;;;33.75;31.99;69704.56;5029405;28;20207;-75
2021/06/18 07:30:54;;;;;;;5.43;3.50;;;;;;;33.81;33.07;69711.59;5032651;28;20206;-75
2021/06/18 07:33:21;;;;;;;7.78;3.70;;;;;;;33.79;36.77;69708.53;5047468;28;20210;-76
2021/06/18 07:35:48;;;;;;;9.27;3.60;;;;;;;33.78;36.06;69707.97;5047544;28;20225;-76
2021/06/18 07:38:16;;;;;;;7.03;3.70;;;;;;;33.83;35.29;69713.47;5045312;28;20212;-76
2021/06/18 07:40:43;;;;;;;9.63;3.70;;;;;;;33.87;34.33;69718.41;5047551;28;20221;-76
2021/06/18 07:43:12;;;;;;;7.63;3.40;;;;;;;33.93;33.97;69725.91;5047546;28;20206;-73
2021/06/18 07:45:40;;;;;;;6.93;3.70;;;;;;;33.88;37.99;69719.25;5038984;28;20210;-73
2021/06/18 07:48:10;;;;;;;5.07;3.35;;;;;;;33.94;34.97;69726.31;5042458;28;20251;-78
2021/06/18 07:50:38;;;;;;;5.03;4.00;;;;;;;33.95;34.76;69727.47;5033104;28;20265;-77
2021/06/18 07:53:05;;;;;;;5.95;3.50;;;;;;;34.00;34.34;69732.97;5044810;28;20666;-79
2021/06/18 07:55:33;;;;;;;6.65;3.28;;;;;;;34.06;33.55;69739.72;5043434;28;20210;-79
2021/06/18 07:58:00;;;;;;;10.35;3.88;;;;;;;34.09;32.96;69743.47;5035347;28;20198;-76
2021/06/18 08:00:28;;;;;;;7.95;3.92;;;;;;;34.07;35.57;69740.88;5048269;28;20232;-78
2021/06/18 08:02:58;;;;;;;9.77;3.70;;;;;;;34.13;33.17;69747.63;5045737;28;20224;-77
2021/06/18 08:05:25;;;;;;;6.40;3.90;;;;;;;34.17;33.55;69752.50;5037033;28;20220;-78
2021/06/18 08:07:53;;;;;;;7.82;4.05;;;;;;;34.31;30.40;69768.53;5035181;28;20237;-78
2021/06/18 08:10:21;;;;;;;9.57;4.07;;;;;;;34.31;33.96;69768.53;5051253;28;20229;-77
2021/06/18 08:12:49;;;;;;;5.88;4.18;;;;;;;34.35;34.03;69772.50;5046771;28;20213;-78
2021/06/18 08:15:16;;;;;;;4.82;3.80;;;;;;;34.42;32.84;69780.31;5042373;28;20679;-78
2021/06/18 08:17:44;;;;;;;7.03;3.90;;;;;;;34.58;29.69;69799.19;5042873;28;20217;-76
2021/06/18 08:20:16;;;;;;;9.10;4.70;;;;;;;34.74;29.36;69817.81;5033570;28;20226;-77
2021/06/18 08:22:43;;;;;;;6.70;4.45;;;;;;;34.89;29.25;69834.47;5034089;28;20615;-76
2021/06/18 08:25:11;;;;;;;8.68;4.65;;;;;;;35.05;28.65;69852.50;5048951;28;20209;-76
2021/06/18 08:27:38;;;;;;;5.95;3.88;;;;;;;35.08;31.23;69857.38;5047181;28;20233;-77
2021/06/18 08:30:07;;;;;;;5.78;4.05;;;;;;;35.09;31.91;69857.50;5049221;28;20617;-78
2021/06/18 08:32:35;;;;;;;5.00;3.80;;;;;;;35.13;31.78;69862.91;5045005;28;20209;-77
2021/06/18 08:35:02;;;;;;;8.20;4.47;;;;;;;35.27;29.28;69877.63;5032852;28;20202;-76
2021/06/18 08:37:31;;;;;;;8.90;3.92;;;;;;;35.41;29.35;69893.66;5045458;28;20202;-77
2021/06/18 08:39:58;;;;;;;7.10;4.40;;;;;;;35.56;28.46;69911.38;5053713;28;20218;-77
2021/06/18 08:42:26;;;;;;;8.05;4.47;;;;;;;35.54;32.65;69908.50;5050409;28;20206;-78
2021/06/18 08:44:53;;;;;;;6.40;4.15;;;;;;;35.55;31.80;69910.53;5047034;28;20300;-76
2021/06/18 08:47:20;;;;;;;6.60;4.70;;;;;;;35.57;32.57;69911.81;5048300;28;20698;-78
2021/06/18 08:49:48;;;;;;;8.35;4.50;;;;;;;35.56;32.21;69910.78;5033345;28;20234;-77
2021/06/18 08:52:15;;;;;;;9.88;4.78;;;;;;;35.56;31.98;69910.78;5034157;28;20305;-77
2021/06/18 08:54:46;;;;;;;6.75;4.18;;;;;;;35.64;30.70;69919.31;5047287;28;20354;-77
2021/06/18 08:57:14;;;;;;;18.60;4.65;;;;;;;35.77;28.74;69934.69;5049969;28;20590;-77
2021/06/18 08:59:42;;;;;;;8.63;4.32;;;;;;;35.90;28.40;69948.94;5041984;28;20338;-77
2021/06/18 09:02:11;;;;;;;8.23;4.60;;;;;;;35.89;30.68;69948.34;5048469;28;20214;-77
2021/06/18 09:04:59;;;;;;;8.02;4.28;;;;;;;35.94;30.11;69953.53;5032601;28;20203;-77
2021/06/18 09:07:26;;;;;;;8.70;4.43;;;;;;;35.97;31.09;69956.38;5039740;28;20230;-77
2021/06/18 09:09:55;;;;;;;6.30;4.47;;;;;;;36.06;29.10;69967.53;5046221;28;20230;-77
2021/06/18 09:12:22;;;;;;;7.60;4.00;;;;;;;36.11;29.28;69973.59;5053454;28;20212;-77
2021/06/18 09:14:49;;;;;;;8.77;4.20;;;;;;;36.12;30.22;69974.25;5052703;28;20202;-77
2021/06/18 09:17:19;;;;;;;10.65;4.60;;;;;;;36.09;30.90;69971.22;5049621;28;20206;-77
2021/06/18 09:19:49;;;;;;;6.63;4.63;;;;;;;36.11;29.74;69973.25;5033385;28;20254;-78
2021/06/18 09:22:19;;;;;;;8.43;4.13;;;;;;;36.24;27.35;69988.34;5037478;28;20206;-79
2021/06/18 09:24:49;;;;;;;5.50;4.78;;;;;;;36.34;27.80;69999.03;5044010;28;20272;-78
2021/06/18 09:27:31;;;;;;;7.07;4.43;;;;;;;36.37;29.54;70002.16;5036756;28;20222;-78
2021/06/18 09:29:59;;;;;;;5.72;4.32;;;;;;;36.42;29.34;70008.34;5052587;28;20328;-77
2021/06/18 09:32:26;;;;;;;6.55;4.68;;;;;;;36.48;28.57;70015.13;5044575;28;20577;-77
2021/06/18 09:34:59;;;;;;;7.45;5.13;;;;;;;36.45;30.62;70012.13;5032065;28;20210;-77
2021/06/18 09:37:31;;;;;;;5.68;4.43;;;;;;;36.55;27.80;70023.06;5043192;28;20225;-76
2021/06/18 09:40:08;;;;;;;6.22;4.78;;;;;;;36.74;25.05;70044.38;5050584;28;20342;-77
2021/06/18 09:42:47;;;;;;;9.07;5.03;;;;;;;36.91;24.87;70063.69;5048149;28;20200;-76
2021/06/18 09:45:16;;;;;;;7.53;4.97;;;;;;;37.03;26.09;70077.19;5044939;28;20206;-76
2021/06/18 09:47:44;;;;;;;8.25;4.47;;;;;;;37.18;25.76;70093.94;5035636;28;20238;-77
2021/06/18 09:50:26;;;;;;;8.32;4.63;;;;;;;37.38;25.36;70116.69;5034678;28;20237;-77
2021/06/18 09:53:12;;;;;;;6.60;4.43;;;;;;;37.52;25.86;70131.88;5046886;28;20198;-77
2021/06/18 09:55:40;;;;;;;7.78;4.65;;;;;;;37.63;26.50;70144.41;5043306;28;20201;-77
2021/06/18 09:58:09;;;;;;;6.88;4.97;;;;;;;37.61;28.92;70141.97;5036625;28;20213;-77
2021/06/18 10:00:37;;;;;;;7.93;4.40;;;;;;;37.71;26.16;70153.97;5051320;28;20229;-77
2021/06/18 10:03:04;;;;;;;6.97;4.95;;;;;;;37.75;27.37;70158.88;5034663;28;20253;-77
2021/06/18 10:05:34;;;;;;;9.95;5.15;;;;;;;37.69;30.59;70151.25;5036668;28;20209;-77
2021/06/18 10:08:02;;;;;;;6.47;4.80;;;;;;;37.67;29.15;70149.38;5050220;28;20225;-76
2021/06/18 10:10:31;;;;;;;6.80;4.90;;;;;;;37.78;26.36;70161.50;5043357;28;20240;-77
2021/06/18 10:12:59;;;;;;;5.72;4.55;;;;;;;37.83;26.58;70167.81;5049039;28;20209;-77
2021/06/18 10:15:30;;;;;;;10.02;4.60;;;;;;;37.92;26.92;70176.84;5037823;28;20203;-76
2021/06/18 10:17:59;;;;;;;6.28;4.63;;;31.30;1.00;;;37.95;27.07;70181.34;5030204;28;20199;-75
2021/06/18 10:20:30;;;;;;;8.05;5.38;;;31.50;1.00;;;38.04;26.34;70190.94;5038754;28;20222;-76
2021/06/18 10:23:01;;;;;;;6.43;4.35;;;31.40;1.00;;;38.14;25.66;70203.22;5042908;28;20588;-77
2021/06/18 10:25:33;;;;;;;5.05;3.97;;;31.70;1.00;;;38.21;24.08;70211.16;5048286;28;20202;-77
2021/06/18 10:28:06;;;;;;;7.18;4.20;;;31.60;1.00;;;38.24;25.92;70213.44;5035574;28;20231;-75
2021/06/18 10:30:37;;;;;;;7.15;4.10;;;31.60;1.00;;;38.30;24.25;70221.41;5035784;28;20222;-75
2021/06/18 10:33:33;;;;;;;6.97;3.83;;;31.70;1.00;;;38.35;24.20;70227.03;5031128;28;20217;-74
2021/06/18 10:36:02;;;;;;;6.53;4.15;;;31.50;1.00;;;38.37;24.87;70228.78;5034538;28;20217;-74
2021/06/18 10:38:33;;;;;;;6.95;3.92;;;31.40;1.00;;;38.45;24.35;70237.72;5040438;28;20217;-75
2021/06/18 10:41:03;;;;;;;6.60;4.35;;;31.50;1.00;;;38.56;23.09;70250.13;5039281;28;20211;-74
2021/06/18 10:43:40;;;;;;;6.88;4.20;;;31.90;1.00;;;38.60;24.67;70254.31;5029936;28;20210;-74
2021/06/18 10:46:16;;;;;;;7.13;4.35;;;31.90;1.00;;;38.62;24.61;70256.72;5031916;28;20198;-75
2021/06/18 10:49:15;;;;;;;6.78;4.47;;;31.90;1.00;;;38.66;24.69;70261.31;5030193;28;20961;-74
2021/06/18 10:51:45;;;;;;;4.75;3.72;;;31.90;1.00;;;38.61;25.73;70255.78;5041594;28;20241;-75
2021/06/18 10:54:25;;;;;;;6.15;4.80;;;31.90;1.00;;;38.66;24.24;70261.66;5041318;28;20208;-76
2021/06/18 10:57:13;;;;;;;6.43;4.03;;;32.00;1.00;;;38.66;24.30;70261.38;5026138;22;20704;-75
2021/06/18 10:59:44;;;;;;;9.25;3.50;;;31.90;1.00;;;38.65;22.61;70259.91;5015762;28;20234;-76
2021/06/18 11:02:37;;;;;;;5.32;3.88;;;31.90;1.00;;;38.67;23.31;70262.75;5011601;28;20204;-76
2021/06/18 11:05:36;;;;;;;7.07;3.97;;;31.70;1.00;;;38.64;23.81;70258.41;5015654;28;20330;-76
2021/06/18 11:08:27;;;;;;;7.63;4.22;;;31.80;1.00;;;38.69;22.33;70264.91;4994381;28;20600;-76
2021/06/18 11:11:00;;;;;;;6.32;3.30;;;32.20;1.00;;;38.69;22.54;70264.72;4995196;28;21303;-75
2021/06/18 11:13:29;;;;;;;4.13;3.50;;;32.20;1.00;;;38.73;22.02;70268.78;4995570;28;20211;-75
2021/06/18 11:15:56;;;;;;;6.15;3.30;;;32.00;1.00;;;38.73;22.85;70268.84;5000274;28;20699;-75
2021/06/18 11:18:41;;;;;;;5.55;3.67;;;32.20;1.00;;;38.70;23.23;70264.44;4996488;28;20207;-76
2021/06/18 11:21:10;;;;;;;5.18;3.00;;;32.00;1.00;;;38.72;22.53;70266.13;4996050;28;20308;-73
2021/06/18 11:23:40;;;;;;;4.40;3.47;;;32.20;1.00;;;38.75;22.19;70269.66;4995482;28;20207;-76
2021/06/18 11:26:10;;;;;;;5.88;3.88;;;32.20;1.00;;;38.82;23.22;70277.31;5000936;28;20719;-74
2021/06/18 11:28:52;;;;;;;7.03;3.60;;;32.30;1.00;;;38.90;21.78;70287.00;4998761;28;20242;-75
2021/06/18 11:31:37;;;;;;;5.25;3.70;;;32.40;1.00;;;39.00;21.16;70298.00;4994031;28;20208;-75
2021/06/18 11:34:05;;;;;;;7.07;3.80;;;32.50;1.00;;;38.89;23.40;70286.03;4993096;28;20216;-74